Time;durP1;ratioP1;P1;durP2;ratioP2;P2;SDS_P1;SDS_P2;PMS_P1;PMS_P2;Temp;Humidity;BMP_temperature;BMP_pressure;BME280_temperature;BME280_humidity;BME280_pressure;Samples;Min_cycle;Max_cycle;Signal;HPM_P1;HPM_P2
2021/12/04 00:02:08;;;;;;;5.17;4.93;;;;;;;3.27;92.71;99727.13;5114451;28;20212;-74
2021/12/04 00:04:39;;;;;;;7.57;6.10;;;;;;;3.25;92.69;99722.00;5114501;28;20193;-74
2021/12/04 00:07:08;;;;;;;6.10;5.90;;;;;;;3.22;92.22;99721.25;5096623;28;20236;-74
2021/12/04 00:09:35;;;;;;;5.80;5.50;;;;;;;3.20;92.30;99720.41;5114046;28;20189;-74
2021/12/04 00:12:04;;;;;;;4.93;4.83;;;;;;;3.23;92.05;99722.94;5114121;28;20192;-74
2021/12/04 00:14:32;;;;;;;4.70;4.60;;;;;;;3.31;92.05;99715.81;5113718;28;20182;-73
2021/12/04 00:17:00;;;;;;;6.23;5.93;;;;;;;3.29;91.71;99707.25;5113867;28;20298;-73
2021/12/04 00:19:28;;;;;;;5.03;4.93;;;;;;;3.21;91.94;99702.25;5113726;28;20228;-73
2021/12/04 00:21:55;;;;;;;7.93;6.77;;;;;;;3.23;91.81;99686.72;5096002;28;20630;-73
2021/12/04 00:24:22;;;;;;;6.67;6.47;;;;;;;3.30;92.15;99690.84;5113933;28;20609;-73
2021/12/04 00:26:50;;;;;;;6.60;6.13;;;;;;;3.22;92.03;99679.84;5113861;28;20674;-73
2021/12/04 00:29:18;;;;;;;5.63;5.43;;;;;;;3.29;91.94;99681.38;5113910;28;20237;-73
2021/12/04 00:31:48;;;;;;;6.23;6.13;;;;;;;3.24;92.01;99684.09;5113657;28;20535;-73
2021/12/04 00:34:16;;;;;;;6.07;5.97;;;;;;;3.20;92.10;99686.78;5095423;28;20709;-73
2021/12/04 00:50:12;;;;;;;5.97;5.87;;;;;;;3.27;91.97;99672.78;5113785;28;20177;-73
2021/12/04 00:52:39;;;;;;;5.90;5.70;;;;;;;3.37;91.95;99669.06;5113715;28;20316;-73
2021/12/04 00:55:06;;;;;;;7.23;6.93;;;;;;;3.38;91.82;99659.56;5113357;28;20194;-73
2021/12/04 00:57:33;;;;;;;6.43;5.93;;;;;;;3.34;92.24;99663.97;5113608;28;20622;-73
2021/12/04 01:00:00;;;;;;;9.07;6.10;;;;;;;3.35;92.25;99663.06;5095363;28;20589;-73
2021/12/04 01:02:27;;;;;;;5.90;5.60;;;;;;;3.23;92.98;99663.44;5113276;28;20207;-73
2021/12/04 01:04:53;;;;;;;6.20;6.00;;;;;;;3.31;92.77;99659.75;5113328;28;20258;-73
2021/12/04 01:07:20;;;;;;;6.20;6.00;;;;;;;3.25;93.16;99661.66;5114285;28;20203;-73
2021/12/04 01:09:47;;;;;;;5.93;5.63;;;;;;;3.25;93.31;99657.31;5117478;28;20185;-75
2021/12/04 01:12:13;;;;;;;5.43;5.20;;;;;;;3.30;93.31;99657.19;5117123;28;20181;-74
2021/12/04 01:14:40;;;;;;;4.83;4.73;;;;;;;3.25;93.57;99654.75;5099067;28;20196;-74
2021/12/04 01:17:06;;;;;;;4.63;4.53;;;;;;;3.14;93.93;99646.41;5116960;28;20719;-73
2021/12/04 01:19:33;;;;;;;5.20;5.00;;;;;;;3.14;94.06;99637.81;5099218;28;20183;-75
2021/12/04 01:21:59;;;;;;;5.03;4.87;;;;;;;3.27;93.89;99642.59;5116784;28;20216;-75
2021/12/04 01:24:26;;;;;;;4.73;4.63;;;;;;;3.21;94.29;99636.75;5117171;28;20184;-75
2021/12/04 01:26:52;;;;;;;4.13;3.90;;;;;;;3.21;94.15;99629.84;5116813;28;20746;-73
2021/12/04 01:29:19;;;;;;;4.80;4.70;;;;;;;3.25;94.19;99628.88;5117103;28;20188;-73
2021/12/04 01:31:47;;;;;;;3.97;3.87;;;;;;;3.22;94.15;99623.78;5117052;28;20173;-73
2021/12/04 01:34:14;;;;;;;4.30;4.20;;;;;;;3.21;94.40;99626.41;5098994;28;20199;-73
2021/12/04 01:36:40;;;;;;;5.37;5.27;;;;;;;3.21;94.32;99632.41;5098678;28;20269;-71
2021/12/04 01:39:08;;;;;;;5.03;4.93;;;;;;;3.21;94.41;99631.56;5098523;28;20185;-71
2021/12/04 01:41:34;;;;;;;4.87;4.87;;;;;;;3.26;94.47;99622.78;5116518;28;20205;-71
2021/12/04 01:44:04;;;;;;;6.87;5.00;;;;;;;3.26;94.59;99624.53;5116511;28;20192;-71
2021/12/04 01:46:31;;;;;;;5.43;5.27;;;;;;;3.24;94.65;99623.75;5098142;28;20566;-71
2021/12/04 01:48:58;;;;;;;6.20;6.00;;;;;;;3.24;94.59;99627.19;5116652;28;20191;-71
2021/12/04 01:51:24;;;;;;;6.90;6.50;;;;;;;3.22;94.65;99628.13;5116666;28;20221;-71
2021/12/04 01:53:51;;;;;;;6.50;6.20;;;;;;;3.21;94.73;99626.41;5116286;28;20197;-71
2021/12/04 01:56:17;;;;;;;6.10;5.90;;;;;;;3.24;94.79;99624.59;5116506;28;20187;-71
2021/12/04 01:58:44;;;;;;;6.60;6.03;;;;;;;3.26;94.78;99627.13;5116814;28;20190;-71
2021/12/04 02:01:11;;;;;;;6.37;6.07;;;;;;;3.26;94.82;99621.97;5116715;28;20188;-71
2021/12/04 02:03:37;;;;;;;6.40;6.10;;;;;;;3.27;94.91;99623.66;5116124;28;20186;-71
2021/12/04 02:06:04;;;;;;;5.87;5.77;;;;;;;3.28;94.86;99620.16;5097756;28;20205;-71
2021/12/04 02:08:30;;;;;;;7.23;6.80;;;;;;;3.25;94.78;99615.09;5116081;28;20242;-71
2021/12/04 02:10:59;;;;;;;6.57;6.37;;;;;;;3.24;94.91;99618.56;5116056;28;20535;-70
2021/12/04 02:13:27;;;;;;;6.17;5.93;;;;;;;3.23;94.87;99614.31;5115945;28;20202;-70
2021/12/04 02:15:53;;;;;;;6.07;5.87;;;;;;;3.24;94.81;99609.06;5097713;28;20612;-70
2021/12/04 02:18:21;;;;;;;5.33;5.23;;;;;;;3.25;94.90;99602.16;5116279;28;20207;-71
2021/12/04 02:20:49;;;;;;;5.70;5.50;;;;;;;3.22;95.00;99602.25;5115613;28;20188;-71
2021/12/04 02:23:16;;;;;;;6.50;6.30;;;;;;;3.25;94.98;99591.81;5116038;28;20212;-71
2021/12/04 02:25:43;;;;;;;5.87;5.57;;;;;;;3.27;95.00;99587.44;5097810;28;20188;-71
2021/12/04 02:28:11;;;;;;;6.20;5.90;;;;;;;3.31;94.82;99589.91;5115637;28;20212;-71
2021/12/04 02:30:40;;;;;;;5.57;5.47;;;;;;;3.31;94.83;99599.41;5097344;28;20187;-71
2021/12/04 02:33:13;;;;;;;6.30;6.20;;;;;;;3.34;94.64;99593.28;5097545;28;20730;-71
2021/12/04 02:35:42;;;;;;;6.77;6.57;;;;;;;3.36;94.68;99586.31;5115601;28;20174;-71
2021/12/04 02:38:09;;;;;;;6.40;6.23;;;;;;;3.37;94.61;99593.19;5115417;28;20262;-71
2021/12/04 02:40:36;;;;;;;6.03;5.93;;;;;;;3.41;94.70;99582.69;5097584;28;20189;-71
2021/12/04 02:43:03;;;;;;;6.57;6.47;;;;;;;3.43;94.35;99575.75;5115874;28;20204;-71
2021/12/04 02:45:30;;;;;;;5.77;5.67;;;;;;;3.39;94.48;99575.88;5115617;28;20233;-71
2021/12/04 02:47:57;;;;;;;7.03;6.83;;;;;;;3.41;94.39;99569.75;5115468;28;20211;-71
2021/12/04 02:50:23;;;;;;;5.87;5.70;;;;;;;3.41;94.28;99567.16;5115242;28;20188;-71
2021/12/04 02:52:49;;;;;;;5.90;5.80;;;;;;;3.37;94.38;99555.25;5097120;28;20238;-71
2021/12/04 02:55:17;;;;;;;5.47;5.20;;;;;;;3.38;94.56;99551.75;5115411;28;20219;-71
2021/12/04 02:57:44;;;;;;;5.33;5.23;;;;;;;3.37;94.47;99546.63;5115026;28;20257;-71
2021/12/04 03:00:17;;;;;;;6.60;6.17;;;;;;;3.37;94.51;99550.06;5115319;28;20728;-71
2021/12/04 03:02:44;;;;;;;6.43;6.23;;;;;;;3.37;94.42;99544.03;5114973;28;20197;-71
2021/12/04 03:05:12;;;;;;;6.37;5.97;;;;;;;3.37;94.28;99526.78;5096813;28;20280;-71
2021/12/04 03:07:39;;;;;;;6.17;6.07;;;;;;;3.43;94.14;99524.00;5114833;28;20254;-71
2021/12/04 03:10:08;;;;;;;5.67;5.47;;;;;;;3.40;94.08;99508.56;5096866;28;20214;-71
2021/12/04 03:12:37;;;;;;;5.87;5.67;;;;;;;3.44;93.97;99501.56;5096591;28;20185;-71
2021/12/04 03:15:04;;;;;;;5.47;5.33;;;;;;;3.45;94.01;99493.75;5114777;28;20225;-73
2021/12/04 03:17:31;;;;;;;6.57;6.23;;;;;;;3.42;93.59;99496.41;5114875;28;20689;-73
2021/12/04 03:19:57;;;;;;;6.10;5.87;;;;;;;3.43;93.64;99480.03;5114548;28;20193;-73
2021/12/04 03:22:24;;;;;;;5.70;5.50;;;;;;;3.40;93.30;99471.50;5114851;28;20203;-73
2021/12/04 03:24:52;;;;;;;6.57;6.20;;;;;;;3.48;93.03;99470.34;5114573;28;20245;-73
2021/12/04 03:27:20;;;;;;;6.07;5.77;;;;;;;3.47;93.17;99473.84;5114763;28;20213;-73
2021/12/04 03:29:56;;;;;;;6.17;5.87;;;;;;;3.43;93.11;99474.84;5113958;28;20238;-73
2021/12/04 03:43:09;;;;;;;5.60;5.47;;;;;;;3.54;92.44;99471.91;5096563;28;20199;-74
2021/12/04 03:45:39;;;;;;;7.07;5.03;;;;;;;3.51;92.51;99480.63;5114220;28;20191;-74
2021/12/04 03:48:10;;;;;;;4.97;4.87;;;;;;;3.58;92.24;99470.91;5096088;28;20551;-73
2021/12/04 03:50:37;;;;;;;5.17;5.07;;;;;;;3.56;92.04;99475.28;5114138;28;20177;-73
2021/12/04 03:53:05;;;;;;;5.17;4.97;;;;;;;3.59;91.63;99467.44;5096132;28;20690;-73
2021/12/04 03:55:32;;;;;;;4.80;4.70;;;;;;;3.68;91.26;99466.28;5114010;28;20200;-73
2021/12/04 03:57:58;;;;;;;4.70;4.60;;;;;;;3.74;91.04;99466.06;5113995;28;20211;-74
2021/12/04 04:00:28;;;;;;;5.27;5.07;;;;;;;3.59;90.93;99470.00;5114503;28;20241;-74
2021/12/04 04:02:57;;;;;;;6.07;5.67;;;;;;;3.63;90.94;99466.41;5096749;28;20545;-74
2021/12/04 04:05:24;;;;;;;5.57;5.27;;;;;;;3.61;91.16;99459.59;5114180;28;20184;-74
2021/12/04 04:07:50;;;;;;;5.13;5.03;;;;;;;3.57;91.03;99459.72;5113807;28;20206;-74
2021/12/04 04:10:17;;;;;;;4.73;4.63;;;;;;;3.57;91.27;99464.91;5095684;28;20547;-74
2021/12/04 04:12:43;;;;;;;5.07;4.83;;;;;;;3.61;90.87;99460.44;5114349;28;20191;-74
2021/12/04 04:15:10;;;;;;;7.03;4.87;;;;;;;3.63;90.30;99452.63;5114124;28;20581;-74
2021/12/04 04:17:42;;;;;;;4.20;4.20;;;;;;;3.65;90.62;99458.63;5113693;28;20212;-74
2021/12/04 04:20:12;;;;;;;5.00;5.00;;;;;;;3.70;90.70;99451.53;5096252;28;20252;-74
2021/12/04 04:22:39;;;;;;;5.07;5.03;;;;;;;3.67;90.38;99441.28;5114167;28;20216;-74
2021/12/04 04:25:07;;;;;;;4.63;4.43;;;;;;;3.71;90.62;99450.63;5095472;28;20185;-74
2021/12/04 04:27:34;;;;;;;5.00;4.67;;;;;;;3.68;90.58;99442.97;5113592;28;20212;-74
2021/12/04 04:30:02;;;;;;;6.40;4.47;;;;;;;3.74;90.46;99441.03;5095660;28;20246;-74
2021/12/04 04:32:29;;;;;;;3.47;3.47;;;;;;;3.78;90.34;99442.59;5113640;28;20230;-74
2021/12/04 04:35:06;;;;;;;4.33;4.33;;;;;;;3.71;90.29;99440.28;5095371;28;20588;-74
2021/12/04 05:02:37;;;;;;;4.10;4.10;;;;;;;3.75;90.00;99413.41;5117594;28;20188;-73
2021/12/04 05:10:53;;;;;;;4.90;4.80;;;;;;;3.79;89.71;99412.41;5088463;28;20230;-74
2021/12/04 05:13:23;;;;;;;4.40;4.30;;;;;;;3.85;89.36;99417.34;5117465;28;20623;-74
2021/12/04 05:18:32;;;;;;;4.60;4.50;;;;;;;3.83;89.25;99413.97;5116965;28;20216;-73
2021/12/04 05:21:04;;;;;;;4.50;4.47;;;;;;;3.85;89.44;99412.16;5117067;28;20608;-73
2021/12/04 05:23:32;;;;;;;4.93;4.73;;;;;;;3.82;89.48;99417.47;5117219;28;20200;-73
2021/12/04 05:25:58;;;;;;;5.07;4.97;;;;;;;3.83;89.55;99416.56;5098610;28;20249;-73
2021/12/04 05:28:26;;;;;;;5.33;5.20;;;;;;;3.90;89.33;99415.44;5116867;28;20215;-73
2021/12/04 05:30:53;;;;;;;5.40;5.20;;;;;;;3.94;89.21;99421.38;5098899;28;20196;-73
2021/12/04 05:33:19;;;;;;;5.27;5.17;;;;;;;3.89;89.39;99412.91;5117315;28;20189;-73
2021/12/04 05:35:48;;;;;;;5.63;5.43;;;;;;;3.88;89.58;99408.66;5117268;28;20185;-73
2021/12/04 05:38:16;;;;;;;6.73;6.50;;;;;;;3.92;89.53;99408.47;5116583;28;20216;-73
2021/12/04 05:40:43;;;;;;;7.33;6.67;;;;;;;3.90;89.37;99405.09;5116578;28;20527;-73
2021/12/04 05:43:11;;;;;;;10.13;9.13;;;;;;;3.89;89.70;99403.41;5116702;28;20197;-73
2021/12/04 05:45:43;;;;;;;14.97;13.13;;;;;;;3.87;89.58;99397.44;5116804;28;20730;-73
2021/12/04 05:48:22;;;;;;;24.83;15.70;;;;;;;3.92;89.37;99399.84;5116521;28;20620;-73
2021/12/04 05:51:15;;;;;;;18.73;14.63;;;;;;;3.99;89.48;99393.56;5116732;28;20173;-73
2021/12/04 05:56:32;;;;;;;27.60;18.13;;;;;;;3.96;89.26;99399.69;5099312;28;20216;-73
2021/12/04 05:59:00;;;;;;;19.00;13.07;;;;;;;3.96;89.08;99401.44;5116267;28;20550;-73
2021/12/04 06:01:28;;;;;;;20.10;14.07;;;;;;;3.88;89.24;99399.13;5098267;28;20200;-73
2021/12/04 06:03:55;;;;;;;15.97;14.00;;;;;;;3.97;89.20;99396.22;5116111;28;20209;-73
2021/12/04 06:06:21;;;;;;;13.97;12.50;;;;;;;3.96;89.05;99394.53;5116133;28;20185;-73
2021/12/04 06:08:48;;;;;;;19.07;14.80;;;;;;;3.95;89.19;99397.16;5116387;28;20645;-73
2021/12/04 06:11:15;;;;;;;16.67;13.30;;;;;;;3.94;89.23;99393.75;5116081;28;20177;-73
2021/12/04 06:13:42;;;;;;;15.97;13.37;;;;;;;3.96;89.50;99394.53;5116021;28;20180;-73
2021/12/04 06:16:09;;;;;;;7.20;6.90;;;;;;;3.98;88.97;99395.31;5116398;28;20180;-73
2021/12/04 06:18:39;;;;;;;10.57;9.67;;;;;;;3.96;89.30;99394.53;5116156;28;20617;-73
2021/12/04 06:23:51;;;;;;;10.60;9.50;;;;;;;3.95;89.46;99392.84;5097577;28;20581;-74
2021/12/04 06:26:17;;;;;;;8.87;8.30;;;;;;;3.93;89.27;99392.06;5115651;28;20203;-74
2021/12/04 06:28:44;;;;;;;10.47;9.63;;;;;;;3.92;89.42;99390.34;5116316;28;20200;-74
2021/12/04 06:31:11;;;;;;;10.87;9.90;;;;;;;3.92;89.49;99384.31;5115660;28;20181;-74
2021/12/04 06:33:38;;;;;;;9.83;9.03;;;;;;;4.01;89.12;99386.59;5097707;28;20186;-74
2021/12/04 06:36:05;;;;;;;8.87;8.27;;;;;;;4.10;88.78;99376.75;5115443;28;20197;-73
2021/12/04 06:38:32;;;;;;;9.00;8.33;;;;;;;4.03;88.81;99379.63;5116047;28;20679;-73
2021/12/04 06:40:59;;;;;;;9.87;8.93;;;;;;;3.96;88.95;99383.31;5115702;28;20192;-73
2021/12/04 06:43:25;;;;;;;10.93;9.83;;;;;;;3.97;89.08;99382.41;5097537;28;20204;-73
2021/12/04 06:46:10;;;;;;;10.00;9.30;;;;;;;3.97;89.26;99385.00;5115354;28;20189;-73
2021/12/04 06:49:01;;;;;;;14.03;12.53;;;;;;;4.00;89.02;99375.41;5097599;28;20209;-74
2021/12/04 06:51:28;;;;;;;15.20;13.30;;;;;;;3.96;89.52;99371.22;5115569;28;20554;-74
2021/12/04 06:54:07;;;;;;;34.53;17.93;;;;;;;3.95;89.33;99366.09;5115678;28;20184;-73
2021/12/04 06:56:39;;;;;;;24.03;16.50;;;;;;;3.97;89.34;99365.13;5115022;28;20739;-74
2021/12/04 06:59:10;;;;;;;28.70;20.13;;;;;;;3.92;89.42;99377.41;5115273;28;20191;-73
2021/12/04 07:01:38;;;;;;;50.73;23.57;;;;;;;3.95;89.36;99379.88;5115360;28;20184;-73
2021/12/04 07:04:05;;;;;;;29.37;19.63;;;;;;;3.97;89.30;99372.06;5114703;28;20213;-73
2021/12/04 07:06:32;;;;;;;21.10;16.63;;;;;;;3.91;89.27;99373.13;5114531;28;20211;-73
2021/12/04 07:08:59;;;;;;;23.07;15.83;;;;;;;3.93;89.46;99379.09;5114861;28;20197;-74
2021/12/04 07:11:27;;;;;;;10.03;9.27;;;;;;;3.97;89.13;99383.25;5115315;28;20204;-74
2021/12/04 07:13:54;;;;;;;10.77;8.90;;;;;;;4.02;89.12;99385.69;5096724;28;20195;-74
2021/12/04 07:16:23;;;;;;;9.43;8.73;;;;;;;4.00;88.97;99383.16;5114658;28;20181;-74
2021/12/04 07:18:50;;;;;;;8.03;7.53;;;;;;;3.99;89.07;99376.28;5115187;28;20185;-74
2021/12/04 07:21:17;;;;;;;8.13;7.63;;;;;;;3.97;89.12;99372.06;5114506;28;20698;-74
2021/12/04 07:23:44;;;;;;;8.23;7.67;;;;;;;4.02;89.16;99376.19;5115064;28;20698;-74
2021/12/04 07:26:10;;;;;;;7.30;7.00;;;;;;;3.97;89.19;99380.66;5114445;28;20528;-71
2021/12/04 07:28:37;;;;;;;7.47;6.90;;;;;;;3.95;89.29;99376.47;5114784;28;20196;-71
2021/12/04 07:31:04;;;;;;;6.67;6.37;;;;;;;3.95;89.31;99369.53;5079424;28;20185;-71
2021/12/04 07:33:31;;;;;;;6.13;6.03;;;;;;;3.99;89.29;99371.09;5114402;28;20627;-71
2021/12/04 07:35:59;;;;;;;7.53;6.93;;;;;;;4.10;88.61;99371.56;5114384;28;20557;-71
2021/12/04 07:38:27;;;;;;;5.93;5.63;;;;;;;4.00;88.92;99370.22;5096262;28;20747;-71
2021/12/04 07:40:55;;;;;;;6.53;6.33;;;;;;;4.02;88.87;99362.38;5115101;28;20506;-71
2021/12/04 07:43:22;;;;;;;6.50;6.13;;;;;;;4.01;88.90;99366.72;5079138;28;20212;-71
2021/12/04 07:45:49;;;;;;;6.77;6.57;;;;;;;4.03;89.05;99375.28;5095968;28;20251;-71
2021/12/04 07:48:16;;;;;;;6.20;6.10;;;;;;;4.02;88.81;99365.81;5095883;28;20220;-71
2021/12/04 07:50:42;;;;;;;5.37;5.27;;;;;;;4.05;88.62;99365.69;5114060;28;20192;-71
2021/12/04 07:53:09;;;;;;;5.27;4.97;;;;;;;4.03;88.49;99361.47;5114127;28;20182;-71
2021/12/04 07:55:35;;;;;;;5.63;5.53;;;;;;;4.00;88.75;99369.34;5114110;28;20189;-71
2021/12/04 07:58:02;;;;;;;6.13;5.83;;;;;;;4.03;88.91;99375.28;5113954;28;20204;-71
2021/12/04 08:00:30;;;;;;;5.40;5.30;;;;;;;4.04;88.84;99382.13;5113970;28;20653;-71
2021/12/04 08:02:57;;;;;;;5.20;4.93;;;;;;;4.07;88.66;99371.69;5114218;28;20195;-71
2021/12/04 08:05:24;;;;;;;5.60;5.27;;;;;;;4.10;88.69;99376.75;5113864;28;20198;-71
2021/12/04 08:07:50;;;;;;;5.57;5.30;;;;;;;4.11;88.49;99377.59;5114137;28;20208;-71
2021/12/04 08:10:18;;;;;;;5.30;5.20;;;;;;;4.12;88.43;99380.09;5114194;28;20180;-71
2021/12/04 08:12:45;;;;;;;5.07;4.93;;;;;;;4.16;88.51;99383.44;5113826;28;20184;-70
2021/12/04 08:15:12;;;;;;;5.67;5.47;;;;;;;4.13;88.44;99386.97;5114075;28;20751;-70
2021/12/04 08:17:41;;;;;;;5.17;5.00;;;;;;;4.11;88.42;99386.19;5113499;28;20693;-71
2021/12/04 08:20:10;;;;;;;5.93;5.80;;;;;;;4.20;88.10;99390.19;5113512;28;20193;-71
2021/12/04 08:22:37;;;;;;;5.40;5.30;;;;;;;4.11;87.91;99385.34;5095493;28;20277;-71
2021/12/04 08:25:05;;;;;;;5.30;5.00;;;;;;;4.17;87.94;99376.53;5113952;28;20212;-71
2021/12/04 08:27:31;;;;;;;5.73;5.20;;;;;;;4.16;88.17;99373.09;5095331;28;20227;-71
2021/12/04 08:29:58;;;;;;;5.37;5.27;;;;;;;4.19;88.16;99366.94;5114206;28;20189;-71
2021/12/04 08:32:25;;;;;;;5.87;5.70;;;;;;;4.24;88.20;99365.03;5113628;28;20193;-71
2021/12/04 08:34:52;;;;;;;5.93;5.80;;;;;;;4.22;88.18;99359.06;5095548;28;20665;-71
2021/12/04 08:37:19;;;;;;;5.37;5.17;;;;;;;4.25;88.26;99362.38;5113523;28;20219;-71
2021/12/04 08:39:47;;;;;;;5.47;5.17;;;;;;;4.34;88.30;99353.41;5114130;28;20538;-71
2021/12/04 08:42:13;;;;;;;5.83;5.60;;;;;;;4.36;87.94;99364.59;5113756;28;20196;-71
2021/12/04 08:44:41;;;;;;;9.03;5.13;;;;;;;4.33;88.07;99357.75;5113300;28;20208;-71
2021/12/04 08:47:07;;;;;;;5.77;5.67;;;;;;;4.35;88.34;99357.69;5113850;28;20220;-71
2021/12/04 08:49:34;;;;;;;5.50;5.40;;;;;;;4.40;88.19;99353.19;5113302;28;20572;-71
2021/12/04 08:52:03;;;;;;;7.40;5.80;;;;;;;4.41;87.81;99342.75;5113891;28;20212;-71
2021/12/04 08:54:33;;;;;;;5.43;5.27;;;;;;;4.48;87.67;99345.94;5094143;28;20199;-71
2021/12/04 08:57:00;;;;;;;5.97;5.87;;;;;;;4.36;87.38;99356.81;5113332;28;20211;-71
2021/12/04 08:59:27;;;;;;;5.60;5.40;;;;;;;4.34;87.75;99362.03;5113729;28;20193;-71
2021/12/04 09:01:54;;;;;;;5.87;5.67;;;;;;;4.37;87.94;99353.31;5095989;28;20193;-73
2021/12/04 09:04:23;;;;;;;5.23;5.03;;;;;;;4.30;87.95;99363.06;5113471;28;20270;-73
2021/12/04 09:06:52;;;;;;;6.13;5.93;;;;;;;4.31;87.88;99359.56;5113498;28;20213;-71
2021/12/04 09:09:20;;;;;;;4.97;4.83;;;;;;;4.32;88.01;99353.47;5113168;28;20189;-71
2021/12/04 09:11:54;;;;;;;6.40;6.10;;;;;;;4.33;87.98;99349.97;5113226;28;20185;-70
2021/12/04 09:14:25;;;;;;;6.33;5.97;;;;;;;4.34;88.49;99363.78;5113492;28;20180;-70
2021/12/04 09:16:54;;;;;;;6.13;5.93;;;;;;;4.36;88.45;99351.63;5113391;28;20566;-71
2021/12/04 09:19:22;;;;;;;6.43;6.20;;;;;;;4.44;88.46;99349.59;5113157;28;20527;-71
2021/12/04 09:21:51;;;;;;;5.97;5.87;;;;;;;4.54;87.75;99344.88;5113147;28;20564;-71
2021/12/04 09:24:24;;;;;;;6.60;6.37;;;;;;;4.57;87.45;99347.34;5113478;28;20563;-71
2021/12/04 10:02:25;;;;;;;9.10;8.50;;;;;;;4.65;88.26;99286.53;5116687;28;20185;-71
2021/12/04 10:21:44;;;;;;;9.20;8.50;;;;;;;4.92;87.97;99243.06;5115648;28;20212;-71
2021/12/04 10:32:37;;;;;;;7.90;7.50;;;;;;;5.21;86.95;99218.50;5097214;28;20195;-71
2021/12/04 10:35:21;;;;;;;8.47;7.90;;;;;;;5.35;86.15;99217.84;5097736;28;20178;-71
2021/12/04 10:37:58;;;;;;;8.10;7.80;;;;;;;5.63;86.10;99217.47;5115491;28;20619;-71
2021/12/04 10:40:36;;;;;;;7.70;7.40;;;;;;;5.72;85.03;99218.84;5115722;28;20509;-71
2021/12/04 10:43:05;;;;;;;8.10;7.70;;;;;;;5.68;85.27;99215.50;5115587;28;20282;-74
2021/12/04 10:45:37;;;;;;;10.73;8.20;;;;;;;5.68;84.35;99209.47;5115525;28;20197;-74
2021/12/04 10:48:11;;;;;;;6.87;6.70;;;;;;;5.59;83.72;99217.69;5097743;28;20292;-74
2021/12/04 10:53:13;;;;;;;7.23;6.93;;;;;;;5.43;84.23;99212.31;5114982;28;20185;-74
2021/12/04 11:00:53;;;;;;;8.10;7.60;;;;;;;5.38;84.48;99196.13;5115358;28;20193;-74
2021/12/04 11:21:15;;;;;;;6.20;6.00;;;;;;;5.73;84.35;99145.22;5114503;28;20185;-71
2021/12/04 11:42:54;;;;;;;6.07;5.20;;;;;;;5.60;84.38;99090.41;5090669;28;20205;-71
2021/12/04 11:45:30;;;;;;;9.80;6.10;;;;;;;5.69;84.15;99094.31;5114462;28;20204;-71
2021/12/04 11:48:00;;;;;;;6.33;6.17;;;;;;;5.62;84.28;99079.94;5114044;28;20201;-71
2021/12/04 11:50:32;;;;;;;5.37;5.27;;;;;;;5.57;83.95;99074.97;5096104;28;20642;-71
2021/12/04 11:53:06;;;;;;;6.70;6.10;;;;;;;5.62;84.22;99078.19;5114258;28;20638;-71
2021/12/04 11:55:36;;;;;;;6.30;6.00;;;;;;;5.68;84.06;99071.88;5114677;28;20184;-71
2021/12/04 11:58:03;;;;;;;6.70;6.00;;;;;;;5.69;84.00;99079.59;5114896;28;20670;-71
2021/12/04 12:00:32;;;;;;;6.77;6.33;;;;;;;5.82;83.91;99095.44;5113985;28;20185;-71
2021/12/04 12:03:12;;;;;;;8.70;6.43;;;;;;;5.81;83.09;99096.34;5113923;28;20192;-71
2021/12/04 12:05:51;;;;;;;4.40;4.27;;;;;;;5.65;82.62;99101.44;5114156;28;20189;-70
2021/12/04 12:08:28;;;;;;;4.37;4.37;;;;;;;5.56;83.55;99078.47;5113908;28;20690;-71
2021/12/04 12:11:04;;;;;;;3.93;3.90;;;;;;;5.54;84.01;99064.75;5113795;28;20177;-71
2021/12/04 12:13:41;;;;;;;4.40;4.40;;;;;;;5.56;84.36;99060.31;5113818;28;20619;-71
2021/12/04 12:16:13;;;;;;;4.53;4.43;;;;;;;5.55;84.33;99063.81;5095726;28;20177;-71
2021/12/04 12:18:54;;;;;;;5.00;4.90;;;;;;;5.48;84.38;99059.84;5095498;28;20181;-71
2021/12/04 12:21:50;;;;;;;5.43;5.13;;;;;;;5.51;84.25;99057.94;5095666;28;20591;-71
2021/12/04 12:32:50;;;;;;;5.70;5.60;;;;;;;5.47;83.19;99046.00;5114181;28;20177;-73
2021/12/04 12:38:54;;;;;;;7.53;7.03;;;;;;;5.44;84.03;99022.81;5114127;28;20219;-74
2021/12/04 12:41:46;;;;;;;6.20;6.00;;;;;;;5.42;84.31;99019.44;5113495;28;20243;-74
2021/12/04 12:44:23;;;;;;;5.83;5.73;;;;;;;5.44;84.15;99016.78;5102757;28;20662;-74
2021/12/04 12:46:53;;;;;;;6.10;5.80;;;;;;;5.44;84.13;99017.63;5113703;28;20196;-74
2021/12/04 12:49:25;;;;;;;10.83;6.47;;;;;;;5.53;84.01;99006.78;5113576;28;20256;-73
2021/12/04 12:52:03;;;;;;;5.63;5.43;;;;;;;5.52;83.90;98991.28;5114031;28;20186;-74
2021/12/04 12:54:35;;;;;;;5.57;5.43;;;;;;;5.46;84.03;98991.59;5113639;28;20646;-71
2021/12/04 12:57:22;;;;;;;8.10;5.57;;;;;;;5.52;84.02;99004.28;5113291;28;20201;-71
2021/12/04 13:11:43;;;;;;;5.57;5.47;;;;;;;5.67;83.68;98966.34;5117212;28;20182;-71
2021/12/04 13:14:16;;;;;;;4.70;4.60;;;;;;;5.73;83.67;98971.22;5117439;28;20531;-71
2021/12/04 13:17:10;;;;;;;6.83;6.63;;;;;;;5.83;82.86;98971.59;5117556;28;20213;-71
2021/12/04 13:19:45;;;;;;;6.07;5.77;;;;;;;5.79;83.01;98969.19;5117214;28;20193;-74
2021/12/04 13:22:17;;;;;;;5.97;5.77;;;;;;;5.71;82.38;98984.28;5117314;28;20569;-74
2021/12/04 13:24:46;;;;;;;9.73;5.13;;;;;;;5.69;82.31;98983.50;5116937;28;20186;-75
2021/12/04 13:29:58;;;;;;;8.83;6.13;;;;;;;5.56;82.78;98979.00;5116809;28;20214;-74
2021/12/04 13:32:44;;;;;;;12.37;6.97;;;;;;;5.51;82.83;98977.47;5117015;28;20177;-74
2021/12/04 13:35:20;;;;;;;12.97;6.70;;;;;;;5.49;82.90;98992.25;5117107;28;20522;-74
2021/12/04 13:37:49;;;;;;;6.10;5.80;;;;;;;5.54;82.86;98986.88;5099166;28;20200;-74
2021/12/04 13:40:19;;;;;;;5.90;5.80;;;;;;;5.40;82.83;98984.09;5116971;28;20186;-74
2021/12/04 13:42:48;;;;;;;5.70;5.30;;;;;;;5.46;83.07;98999.38;5116911;28;20556;-74
2021/12/04 13:45:19;;;;;;;4.67;4.57;;;;;;;5.53;82.92;98995.56;5116501;28;20213;-74
2021/12/04 13:47:57;;;;;;;5.37;5.27;;;;;;;5.59;82.83;98999.63;5116484;28;20213;-74
2021/12/04 13:52:58;;;;;;;5.67;5.57;;;;;;;5.44;83.68;99001.22;5116968;28;20185;-74
2021/12/04 13:55:27;;;;;;;6.00;5.80;;;;;;;5.36;84.35;99004.19;5116412;28;20548;-75
2021/12/04 13:57:56;;;;;;;5.73;5.53;;;;;;;5.37;84.71;99005.84;5117075;28;20696;-74
2021/12/04 14:00:23;;;;;;;5.37;5.27;;;;;;;5.35;85.11;99001.63;5116238;28;20189;-74
2021/12/04 14:02:50;;;;;;;4.90;4.80;;;;;;;5.32;85.43;99001.78;5116624;28;20222;-74
2021/12/04 14:05:21;;;;;;;5.23;5.13;;;;;;;5.26;85.65;98997.72;5116174;28;20205;-75
2021/12/04 14:07:54;;;;;;;5.87;5.67;;;;;;;5.20;86.12;98991.06;5116265;28;20262;-72
2021/12/04 14:10:24;;;;;;;4.87;4.77;;;;;;;5.19;86.33;98991.16;5116076;28;20184;-71
2021/12/04 14:12:50;;;;;;;5.70;5.50;;;;;;;5.16;86.78;98992.13;5116741;28;20180;-71
2021/12/04 14:15:20;;;;;;;5.90;5.70;;;;;;;5.16;87.00;98997.31;5115612;28;20182;-74
2021/12/04 14:17:59;;;;;;;5.80;5.60;;;;;;;5.16;86.71;98992.13;5116555;28;20213;-74
2021/12/04 14:20:27;;;;;;;6.87;6.57;;;;;;;5.16;87.00;98983.53;5115894;28;20197;-75
2021/12/04 14:22:55;;;;;;;6.60;6.27;;;;;;;5.09;87.50;98980.38;5115774;28;20189;-71
2021/12/04 14:25:24;;;;;;;7.40;6.77;;;;;;;5.07;87.72;98979.59;5116012;28;20200;-71
2021/12/04 14:27:52;;;;;;;6.70;6.23;;;;;;;5.03;87.83;98980.66;5115666;28;20212;-71
2021/12/04 14:30:21;;;;;;;6.67;6.13;;;;;;;5.01;88.25;98984.25;5115935;28;20196;-71
2021/12/04 14:32:53;;;;;;;6.70;6.40;;;;;;;5.02;88.53;98989.34;5115829;28;20708;-71
2021/12/04 14:35:28;;;;;;;8.43;7.93;;;;;;;5.00;88.63;98993.78;5115932;28;20176;-71
2021/12/04 14:37:57;;;;;;;6.67;6.07;;;;;;;5.05;89.08;98998.72;5115538;28;20212;-71
2021/12/04 14:40:33;;;;;;;4.87;4.77;;;;;;;5.02;89.09;98999.72;5116029;28;20196;-71
2021/12/04 14:43:01;;;;;;;4.93;4.83;;;;;;;5.00;89.48;99005.88;5115834;28;20191;-74
2021/12/04 14:45:31;;;;;;;7.33;7.03;;;;;;;4.84;89.82;99008.34;5115586;28;20213;-71
2021/12/04 14:48:11;;;;;;;7.20;6.07;;;;;;;4.85;89.75;99015.19;5115459;28;20205;-71
2021/12/04 14:50:42;;;;;;;9.80;8.90;;;;;;;4.93;89.70;99023.50;5115700;28;20540;-74
2021/12/04 14:53:13;;;;;;;7.23;6.93;;;;;;;4.69;90.76;99026.25;5115348;28;20162;-74
2021/12/04 14:55:48;;;;;;;7.33;7.03;;;;;;;4.52;91.49;99025.34;5115835;28;20178;-74
2021/12/04 14:58:20;;;;;;;7.37;6.87;;;;;;;4.45;92.37;99034.28;5115736;28;20201;-74
2021/12/04 15:00:50;;;;;;;9.53;8.53;;;;;;;4.38;93.04;99034.53;5115741;28;20166;-74
2021/12/04 15:03:45;;;;;;;8.77;8.07;;;;;;;4.42;93.09;99028.31;5115060;28;20220;-74
2021/12/04 15:06:18;;;;;;;8.73;8.07;;;;;;;4.34;93.42;99038.16;5115223;28;20216;-73
2021/12/04 15:08:52;;;;;;;14.63;8.23;;;;;;;4.28;93.72;99038.41;5114974;28;20173;-74